SPZO

Details ICAO SPZO (CUZ)
Name Alejandro Velasco Astete Intl
Region Peru
Timezone America/Lima (UTC-5.0)
Plans Departing 412
Arriving 578
Stats Elevation 10,860 ft / 3,310 m (AMSL)
Location -13.535700° -71.938800°
Runways 1
Magnetic Variation 6.151° W
Sunrise 2021-03-02 10:51:01 UTC / 2021-03-02 05:51:01 Local
Sunset 2021-03-02 23:11:37 UTC / 2021-03-02 18:11:37 Local
Advertisement - Login to hide

Runways

ID Width Length Bearing (true/mag) Surface Threshold Overrun Markings Lighting
10 148 ft / 45 m 11,142 ft / 3,396 m 95.98° / 102.13° ASPHALT 0 ft / 0 m 190 ft / 58 m VISUAL CENTERLINE EDGE THRESHOLD
28 148 ft / 45 m 11,142 ft / 3,396 m 275.97° / 282.12° ASPHALT 0 ft / 0 m 190 ft / 58 m PREC-APP CENTERLINE EDGE THRESHOLD ALSF-I REIL-OMNI

Map

Weather


0- 5 10 15 20 25 30 35+ Temperature / °C

Clouds and Precipitation
Forecast for 2021-03-02 12:00 UTC. Updated 5 hours ago

Ground ~20,000 ft ~40,000 ft Winds

METAR

SPZO 021400Z VRB03KT 9999 SCT046 16/05 Q1030 NOSIG RMK BIRD HAZARD RWY 28 PP000

TAF

TAF SPZO 021110Z 0212/0312 00000KT 9999 SCT036 BKN080 TX21/0219Z TN09/0311Z TEMPO 0218/0222 36012KT FEW046TCU SCT050 BKN080 TEMPO 0301/0306 RA

Frequencies

Approach 120.60 MHz Cusco Approach
Ground 121.90 MHz Cusco Ground
Recorded 127.00 MHz ATIS
Tower 118.10 MHz Cusco Tower
Warning: Do not use this data for real-world aviation or navigation. No guarantee of current accuracy is given.